sensor_id;sensor_type;location;lat;lon;timestamp;pressure;altitude;pressure_sealevel;temperature;humidity
61571;BME280;47463;49.884;10.010;2024-03-29T00:00:01;100310;;;3.9;72
61571;BME280;47463;49.884;10.010;2024-03-29T00:05:01;100300;;;3.6;73
61571;BME280;47463;49.884;10.010;2024-03-29T00:10:01;100300;;;3.6;74
61571;BME280;47463;49.884;10.010;2024-03-29T00:15:01;100290;;;3.3;75
61571;BME280;47463;49.884;10.010;2024-03-29T00:20:01;100290;;;3.1;76
61571;BME280;47463;49.884;10.010;2024-03-29T00:25:01;100300;;;3;76
61571;BME280;47463;49.884;10.010;2024-03-29T00:30:01;100300;;;2.9;76
61571;BME280;47463;49.884;10.010;2024-03-29T00:35:01;100290;;;3;76
61571;BME280;47463;49.884;10.010;2024-03-29T00:40:01;100290;;;3.8;73
61571;BME280;47463;49.884;10.010;2024-03-29T00:45:01;100280;;;3.8;73
61571;BME280;47463;49.884;10.010;2024-03-29T00:50:01;100280;;;4.3;71
61571;BME280;47463;49.884;10.010;2024-03-29T00:55:01;100250;;;4.6;70
61571;BME280;47463;49.884;10.010;2024-03-29T01:00:01;100270;;;4.9;67
61571;BME280;47463;49.884;10.010;2024-03-29T01:05:01;100260;;;4.7;67
61571;BME280;47463;49.884;10.010;2024-03-29T01:10:01;100250;;;4.4;68
61571;BME280;47463;49.884;10.010;2024-03-29T01:15:01;100250;;;4.5;68
61571;BME280;47463;49.884;10.010;2024-03-29T01:20:01;100270;;;4.7;67
61571;BME280;47463;49.884;10.010;2024-03-29T01:25:01;100260;;;4.7;67
61571;BME280;47463;49.884;10.010;2024-03-29T01:30:01;100260;;;4.7;67
61571;BME280;47463;49.884;10.010;2024-03-29T01:35:01;100230;;;4.7;68
61571;BME280;47463;49.884;10.010;2024-03-29T01:40:01;100220;;;4.6;68
61571;BME280;47463;49.884;10.010;2024-03-29T01:45:01;100220;;;4.6;68
61571;BME280;47463;49.884;10.010;2024-03-29T01:50:01;100210;;;4.7;68
61571;BME280;47463;49.884;10.010;2024-03-29T01:55:01;100220;;;4.6;68
61571;BME280;47463;49.884;10.010;2024-03-29T02:00:01;100230;;;4.8;67
61571;BME280;47463;49.884;10.010;2024-03-29T02:05:01;100210;;;4.9;67
61571;BME280;47463;49.884;10.010;2024-03-29T02:10:01;100200;;;5;67
61571;BME280;47463;49.884;10.010;2024-03-29T02:15:01;100210;;;4.9;66
61571;BME280;47463;49.884;10.010;2024-03-29T02:20:01;100200;;;4.9;68
61571;BME280;47463;49.884;10.010;2024-03-29T02:25:01;100190;;;4.8;68
61571;BME280;47463;49.884;10.010;2024-03-29T02:30:12;100200;;;4.7;69
61571;BME280;47463;49.884;10.010;2024-03-29T02:35:01;100210;;;4.7;69
61571;BME280;47463;49.884;10.010;2024-03-29T02:40:01;100200;;;4.8;68
61571;BME280;47463;49.884;10.010;2024-03-29T02:45:01;100200;;;5;67
61571;BME280;47463;49.884;10.010;2024-03-29T02:50:01;100200;;;5.5;65
61571;BME280;47463;49.884;10.010;2024-03-29T02:55:01;100180;;;5.8;64
61571;BME280;47463;49.884;10.010;2024-03-29T03:00:01;100190;;;5.7;65
61571;BME280;47463;49.884;10.010;2024-03-29T03:05:01;100180;;;5.6;66
61571;BME280;47463;49.884;10.010;2024-03-29T03:10:01;100190;;;5.5;67
61571;BME280;47463;49.884;10.010;2024-03-29T03:15:01;100190;;;5.5;67
61571;BME280;47463;49.884;10.010;2024-03-29T03:20:01;100180;;;5.5;68
61571;BME280;47463;49.884;10.010;2024-03-29T03:25:01;100200;;;5.3;69
61571;BME280;47463;49.884;10.010;2024-03-29T03:30:01;100200;;;5.4;69
61571;BME280;47463;49.884;10.010;2024-03-29T03:35:01;100210;;;5.7;68
61571;BME280;47463;49.884;10.010;2024-03-29T03:40:01;100210;;;6;67
61571;BME280;47463;49.884;10.010;2024-03-29T03:45:01;100220;;;6;67
61571;BME280;47463;49.884;10.010;2024-03-29T03:50:01;100220;;;5.9;67
61571;BME280;47463;49.884;10.010;2024-03-29T03:55:01;100200;;;6;66
61571;BME280;47463;49.884;10.010;2024-03-29T04:00:01;100210;;;6;66
61571;BME280;47463;49.884;10.010;2024-03-29T04:05:01;100210;;;6;67
61571;BME280;47463;49.884;10.010;2024-03-29T04:10:01;100220;;;6.1;66
61571;BME280;47463;49.884;10.010;2024-03-29T04:15:01;100220;;;6.1;67
61571;BME280;47463;49.884;10.010;2024-03-29T04:20:01;100200;;;5.7;70
61571;BME280;47463;49.884;10.010;2024-03-29T04:25:01;100220;;;5.6;71
61571;BME280;47463;49.884;10.010;2024-03-29T04:30:01;100220;;;5.8;69
61571;BME280;47463;49.884;10.010;2024-03-29T04:35:01;100240;;;5.6;71
61571;BME280;47463;49.884;10.010;2024-03-29T04:40:01;100250;;;5.8;70
61571;BME280;47463;49.884;10.010;2024-03-29T04:45:01;100250;;;6.1;68
61571;BME280;47463;49.884;10.010;2024-03-29T04:50:01;100270;;;6.2;67
61571;BME280;47463;49.884;10.010;2024-03-29T04:55:01;100270;;;6.4;66
61571;BME280;47463;49.884;10.010;2024-03-29T05:00:01;100280;;;6.4;66
61571;BME280;47463;49.884;10.010;2024-03-29T05:05:01;100270;;;6.3;67
61571;BME280;47463;49.884;10.010;2024-03-29T05:10:01;100290;;;6.3;67
61571;BME280;47463;49.884;10.010;2024-03-29T05:15:01;100300;;;6.2;68
61571;BME280;47463;49.884;10.010;2024-03-29T05:20:01;100300;;;6.2;68
61571;BME280;47463;49.884;10.010;2024-03-29T05:25:01;100280;;;6.1;69
61571;BME280;47463;49.884;10.010;2024-03-29T05:30:01;100270;;;5.9;71
61571;BME280;47463;49.884;10.010;2024-03-29T05:35:01;100260;;;5.6;74
61571;BME280;47463;49.884;10.010;2024-03-29T05:40:01;100270;;;5.6;74
61571;BME280;47463;49.884;10.010;2024-03-29T05:45:01;100270;;;5.6;74
61571;BME280;47463;49.884;10.010;2024-03-29T05:50:01;100270;;;5.5;76
61571;BME280;47463;49.884;10.010;2024-03-29T05:55:01;100260;;;5.4;77
61571;BME280;47463;49.884;10.010;2024-03-29T06:00:01;100260;;;5.5;77
61571;BME280;47463;49.884;10.010;2024-03-29T06:05:01;100260;;;5.5;78
61571;BME280;47463;49.884;10.010;2024-03-29T06:10:01;100260;;;5.5;78
61571;BME280;47463;49.884;10.010;2024-03-29T06:15:01;100260;;;5.5;79
61571;BME280;47463;49.884;10.010;2024-03-29T06:20:01;100250;;;5.4;80
61571;BME280;47463;49.884;10.010;2024-03-29T06:25:01;100240;;;5.4;82
61571;BME280;47463;49.884;10.010;2024-03-29T06:30:01;100250;;;5.4;82
61571;BME280;47463;49.884;10.010;2024-03-29T06:35:01;100240;;;5.4;83
61571;BME280;47463;49.884;10.010;2024-03-29T06:40:01;100240;;;5.4;83
61571;BME280;47463;49.884;10.010;2024-03-29T06:45:01;100230;;;5.5;83
61571;BME280;47463;49.884;10.010;2024-03-29T06:50:01;100220;;;5.6;83
61571;BME280;47463;49.884;10.010;2024-03-29T06:55:01;100210;;;5.8;81
61571;BME280;47463;49.884;10.010;2024-03-29T07:00:01;100210;;;5.9;81
61571;BME280;47463;49.884;10.010;2024-03-29T07:05:01;100210;;;5.9;82
61571;BME280;47463;49.884;10.010;2024-03-29T07:10:01;100210;;;5.9;83
61571;BME280;47463;49.884;10.010;2024-03-29T07:15:01;100210;;;5.9;83
61571;BME280;47463;49.884;10.010;2024-03-29T07:20:01;100200;;;6.2;81
61571;BME280;47463;49.884;10.010;2024-03-29T07:25:01;100210;;;6.5;80
61571;BME280;47463;49.884;10.010;2024-03-29T07:30:01;100220;;;6.6;80
61571;BME280;47463;49.884;10.010;2024-03-29T07:35:01;100230;;;6.7;80
61571;BME280;47463;49.884;10.010;2024-03-29T07:40:01;100240;;;6.7;79
61571;BME280;47463;49.884;10.010;2024-03-29T07:45:01;100230;;;6.8;79
61571;BME280;47463;49.884;10.010;2024-03-29T07:50:01;100220;;;6.9;78
61571;BME280;47463;49.884;10.010;2024-03-29T07:55:01;100230;;;7.1;76
61571;BME280;47463;49.884;10.010;2024-03-29T08:00:01;100210;;;7.4;75
61571;BME280;47463;49.884;10.010;2024-03-29T08:05:01;100210;;;8;70
61571;BME280;47463;49.884;10.010;2024-03-29T08:10:01;100200;;;8.4;67
61571;BME280;47463;49.884;10.010;2024-03-29T08:15:01;100180;;;8.4;68
61571;BME280;47463;49.884;10.010;2024-03-29T08:20:01;100190;;;8.4;68
61571;BME280;47463;49.884;10.010;2024-03-29T08:25:01;100170;;;8.5;67
61571;BME280;47463;49.884;10.010;2024-03-29T08:30:01;100150;;;8.7;66
61571;BME280;47463;49.884;10.010;2024-03-29T08:35:01;100140;;;8.8;65
61571;BME280;47463;49.884;10.010;2024-03-29T08:40:01;100150;;;8.9;65
61571;BME280;47463;49.884;10.010;2024-03-29T08:45:01;100150;;;9;64
61571;BME280;47463;49.884;10.010;2024-03-29T08:50:01;100160;;;9.1;63
61571;BME280;47463;49.884;10.010;2024-03-29T08:55:01;100180;;;9.2;63
61571;BME280;47463;49.884;10.010;2024-03-29T09:00:01;100190;;;9.2;63
61571;BME280;47463;49.884;10.010;2024-03-29T09:05:01;100190;;;8.9;67
61571;BME280;47463;49.884;10.010;2024-03-29T09:10:01;100230;;;9;66
61571;BME280;47463;49.884;10.010;2024-03-29T09:15:01;100250;;;8.9;68
61571;BME280;47463;49.884;10.010;2024-03-29T09:20:01;100240;;;8.8;69
61571;BME280;47463;49.884;10.010;2024-03-29T09:25:01;100260;;;8.8;70
61571;BME280;47463;49.884;10.010;2024-03-29T09:30:01;100290;;;8.6;72
61571;BME280;47463;49.884;10.010;2024-03-29T09:35:01;100280;;;8.7;72
61571;BME280;47463;49.884;10.010;2024-03-29T09:40:01;100310;;;8.7;73
61571;BME280;47463;49.884;10.010;2024-03-29T09:45:01;100300;;;8.6;74
61571;BME280;47463;49.884;10.010;2024-03-29T09:50:02;100310;;;8.7;74
61571;BME280;47463;49.884;10.010;2024-03-29T09:55:01;100320;;;8.7;74
61571;BME280;47463;49.884;10.010;2024-03-29T10:00:01;100340;;;8.6;75
61571;BME280;47463;49.884;10.010;2024-03-29T10:05:01;100350;;;8.6;74
61571;BME280;47463;49.884;10.010;2024-03-29T10:10:01;100350;;;8.5;74
61571;BME280;47463;49.884;10.010;2024-03-29T10:15:02;100350;;;8.3;76
61571;BME280;47463;49.884;10.010;2024-03-29T10:20:01;100350;;;8.2;77
61571;BME280;47463;49.884;10.010;2024-03-29T10:30:01;100380;;;8.1;77
61571;BME280;47463;49.884;10.010;2024-03-29T10:35:01;100370;;;8.1;78
61571;BME280;47463;49.884;10.010;2024-03-29T10:40:01;100370;;;8.1;78
61571;BME280;47463;49.884;10.010;2024-03-29T10:45:01;100380;;;8.1;79
61571;BME280;47463;49.884;10.010;2024-03-29T10:50:01;100370;;;8.1;80
61571;BME280;47463;49.884;10.010;2024-03-29T10:55:01;100330;;;8.2;80
61571;BME280;47463;49.884;10.010;2024-03-29T11:00:03;100340;;;8.3;80
61571;BME280;47463;49.884;10.010;2024-03-29T11:05:01;100340;;;8.3;80
61571;BME280;47463;49.884;10.010;2024-03-29T11:10:01;100320;;;8.4;80
61571;BME280;47463;49.884;10.010;2024-03-29T11:15:02;100310;;;8.5;81
61571;BME280;47463;49.884;10.010;2024-03-29T11:20:01;100290;;;8.6;81
61571;BME280;47463;49.884;10.010;2024-03-29T11:25:01;100280;;;8.7;81
61571;BME280;47463;49.884;10.010;2024-03-29T11:30:01;100260;;;8.8;82
61571;BME280;47463;49.884;10.010;2024-03-29T11:35:01;100250;;;9;81
61571;BME280;47463;49.884;10.010;2024-03-29T11:40:01;100250;;;9.2;81
61571;BME280;47463;49.884;10.010;2024-03-29T11:45:01;100240;;;9.5;81
61571;BME280;47463;49.884;10.010;2024-03-29T11:50:01;100250;;;9.5;81
61571;BME280;47463;49.884;10.010;2024-03-29T11:55:01;100260;;;9.4;81
61571;BME280;47463;49.884;10.010;2024-03-29T12:00:01;100260;;;9.4;81
61571;BME280;47463;49.884;10.010;2024-03-29T12:05:04;100270;;;9.4;81
61571;BME280;47463;49.884;10.010;2024-03-29T12:10:01;100270;;;9.3;81
61571;BME280;47463;49.884;10.010;2024-03-29T12:15:01;100270;;;9.4;81
61571;BME280;47463;49.884;10.010;2024-03-29T12:20:01;100250;;;9.5;81
61571;BME280;47463;49.884;10.010;2024-03-29T12:25:01;100260;;;9.3;81
61571;BME280;47463;49.884;10.010;2024-03-29T12:30:01;100270;;;9.4;81
61571;BME280;47463;49.884;10.010;2024-03-29T12:35:07;100270;;;9.5;80
61571;BME280;47463;49.884;10.010;2024-03-29T12:40:01;100270;;;9.6;80
61571;BME280;47463;49.884;10.010;2024-03-29T12:45:01;100270;;;9.7;80
61571;BME280;47463;49.884;10.010;2024-03-29T12:50:01;100260;;;9.8;80
61571;BME280;47463;49.884;10.010;2024-03-29T12:55:01;100270;;;9.9;80
61571;BME280;47463;49.884;10.010;2024-03-29T13:00:01;100270;;;10;81
61571;BME280;47463;49.884;10.010;2024-03-29T13:05:01;100280;;;10;81
61571;BME280;47463;49.884;10.010;2024-03-29T13:10:01;100300;;;10.1;82
61571;BME280;47463;49.884;10.010;2024-03-29T13:15:01;100320;;;10.1;81
61571;BME280;47463;49.884;10.010;2024-03-29T13:20:01;100330;;;10.1;81
61571;BME280;47463;49.884;10.010;2024-03-29T13:25:01;100340;;;10.2;82
61571;BME280;47463;49.884;10.010;2024-03-29T13:30:01;100360;;;10.3;82
61571;BME280;47463;49.884;10.010;2024-03-29T13:35:01;100370;;;10.3;82
61571;BME280;47463;49.884;10.010;2024-03-29T13:40:01;100360;;;10.4;82
61571;BME280;47463;49.884;10.010;2024-03-29T13:45:01;100370;;;10.5;82
61571;BME280;47463;49.884;10.010;2024-03-29T13:50:01;100370;;;10.5;81
61571;BME280;47463;49.884;10.010;2024-03-29T13:55:01;100370;;;10.6;81
61571;BME280;47463;49.884;10.010;2024-03-29T14:00:01;100370;;;10.6;81
61571;BME280;47463;49.884;10.010;2024-03-29T14:05:01;100360;;;10.7;81
61571;BME280;47463;49.884;10.010;2024-03-29T14:10:01;100360;;;10.7;80
61571;BME280;47463;49.884;10.010;2024-03-29T14:15:01;100340;;;10.7;81
61571;BME280;47463;49.884;10.010;2024-03-29T14:20:01;100350;;;10.7;81
61571;BME280;47463;49.884;10.010;2024-03-29T14:25:01;100350;;;10.6;81
61571;BME280;47463;49.884;10.010;2024-03-29T14:30:01;100340;;;10.7;82
61571;BME280;47463;49.884;10.010;2024-03-29T14:35:01;100340;;;10.7;82
61571;BME280;47463;49.884;10.010;2024-03-29T14:40:01;100330;;;10.6;82
61571;BME280;47463;49.884;10.010;2024-03-29T14:45:01;100330;;;10.6;82
61571;BME280;47463;49.884;10.010;2024-03-29T14:50:01;100330;;;10.5;82
61571;BME280;47463;49.884;10.010;2024-03-29T14:55:01;100290;;;10.6;82
61571;BME280;47463;49.884;10.010;2024-03-29T15:00:01;100300;;;10.7;82
61571;BME280;47463;49.884;10.010;2024-03-29T15:05:01;100330;;;10.8;82
61571;BME280;47463;49.884;10.010;2024-03-29T15:10:01;100350;;;10.9;82
61571;BME280;47463;49.884;10.010;2024-03-29T15:15:01;100350;;;11.1;82
61571;BME280;47463;49.884;10.010;2024-03-29T15:20:01;100330;;;11.3;82
61571;BME280;47463;49.884;10.010;2024-03-29T15:25:01;100330;;;11.3;81
61571;BME280;47463;49.884;10.010;2024-03-29T15:30:01;100310;;;11.4;80
61571;BME280;47463;49.884;10.010;2024-03-29T15:35:01;100320;;;11.5;79
61571;BME280;47463;49.884;10.010;2024-03-29T15:40:01;100320;;;11.6;80
61571;BME280;47463;49.884;10.010;2024-03-29T15:45:01;100320;;;11.4;80
61571;BME280;47463;49.884;10.010;2024-03-29T15:50:01;100320;;;11.4;81
61571;BME280;47463;49.884;10.010;2024-03-29T15:55:01;100320;;;11.3;81
61571;BME280;47463;49.884;10.010;2024-03-29T16:00:01;100320;;;11.3;81
61571;BME280;47463;49.884;10.010;2024-03-29T16:05:01;100310;;;11.3;80
61571;BME280;47463;49.884;10.010;2024-03-29T16:10:01;100300;;;11.3;81
61571;BME280;47463;49.884;10.010;2024-03-29T16:15:01;100290;;;11.4;82
61571;BME280;47463;49.884;10.010;2024-03-29T16:20:01;100280;;;11.3;82
61571;BME280;47463;49.884;10.010;2024-03-29T16:25:01;100270;;;11.2;82
61571;BME280;47463;49.884;10.010;2024-03-29T16:30:01;100270;;;11;83
61571;BME280;47463;49.884;10.010;2024-03-29T16:35:01;100270;;;11;83
61571;BME280;47463;49.884;10.010;2024-03-29T16:40:01;100260;;;10.8;84
61571;BME280;47463;49.884;10.010;2024-03-29T16:45:01;100240;;;10.7;84
61571;BME280;47463;49.884;10.010;2024-03-29T16:50:01;100250;;;10.6;84
61571;BME280;47463;49.884;10.010;2024-03-29T16:55:01;100250;;;10.5;85
61571;BME280;47463;49.884;10.010;2024-03-29T17:00:01;100250;;;10.4;85
61571;BME280;47463;49.884;10.010;2024-03-29T17:05:01;100260;;;10.4;85
61571;BME280;47463;49.884;10.010;2024-03-29T17:10:01;100260;;;10.3;85
61571;BME280;47463;49.884;10.010;2024-03-29T17:15:01;100270;;;10.2;85
61571;BME280;47463;49.884;10.010;2024-03-29T17:20:01;100260;;;10.2;85
61571;BME280;47463;49.884;10.010;2024-03-29T17:25:01;100260;;;10.1;86
61571;BME280;47463;49.884;10.010;2024-03-29T17:30:01;100260;;;9.9;86
61571;BME280;47463;49.884;10.010;2024-03-29T17:35:01;100260;;;9.8;86
61571;BME280;47463;49.884;10.010;2024-03-29T17:40:01;100270;;;9.8;86
61571;BME280;47463;49.884;10.010;2024-03-29T17:45:01;100290;;;9.8;86
61571;BME280;47463;49.884;10.010;2024-03-29T17:50:01;100280;;;9.6;87
61571;BME280;47463;49.884;10.010;2024-03-29T17:55:01;100280;;;9.3;86
61571;BME280;47463;49.884;10.010;2024-03-29T18:00:01;100280;;;9.2;87
61571;BME280;47463;49.884;10.010;2024-03-29T18:05:01;100270;;;9.4;87
61571;BME280;47463;49.884;10.010;2024-03-29T18:10:01;100260;;;9.4;87
61571;BME280;47463;49.884;10.010;2024-03-29T18:15:01;100270;;;9.1;87
61571;BME280;47463;49.884;10.010;2024-03-29T18:20:01;100270;;;9;87
61571;BME280;47463;49.884;10.010;2024-03-29T18:25:01;100260;;;8.9;87
61571;BME280;47463;49.884;10.010;2024-03-29T18:30:01;100280;;;8.9;88
61571;BME280;47463;49.884;10.010;2024-03-29T18:35:01;100280;;;8.8;88
61571;BME280;47463;49.884;10.010;2024-03-29T18:40:01;100280;;;8.8;88
61571;BME280;47463;49.884;10.010;2024-03-29T18:45:01;100270;;;8.8;88
61571;BME280;47463;49.884;10.010;2024-03-29T18:50:01;100260;;;8.9;88
61571;BME280;47463;49.884;10.010;2024-03-29T18:55:01;100270;;;8.9;88
61571;BME280;47463;49.884;10.010;2024-03-29T19:00:01;100270;;;8.9;88
61571;BME280;47463;49.884;10.010;2024-03-29T19:05:01;100270;;;8.7;88
61571;BME280;47463;49.884;10.010;2024-03-29T19:10:01;100260;;;8.7;88
61571;BME280;47463;49.884;10.010;2024-03-29T19:15:01;100260;;;8.9;88
61571;BME280;47463;49.884;10.010;2024-03-29T19:20:01;100260;;;9;88
61571;BME280;47463;49.884;10.010;2024-03-29T19:25:01;100260;;;9;87
61571;BME280;47463;49.884;10.010;2024-03-29T19:30:01;100240;;;9.1;87
61571;BME280;47463;49.884;10.010;2024-03-29T19:35:01;100240;;;9;87
61571;BME280;47463;49.884;10.010;2024-03-29T19:40:01;100250;;;9;87
61571;BME280;47463;49.884;10.010;2024-03-29T19:45:01;100250;;;9;87
61571;BME280;47463;49.884;10.010;2024-03-29T19:50:01;100250;;;8.9;87
61571;BME280;47463;49.884;10.010;2024-03-29T19:55:01;100250;;;9;87
61571;BME280;47463;49.884;10.010;2024-03-29T20:00:01;100260;;;9;87
61571;BME280;47463;49.884;10.010;2024-03-29T20:05:01;100270;;;8.9;87
61571;BME280;47463;49.884;10.010;2024-03-29T20:10:01;100270;;;9;88
61571;BME280;47463;49.884;10.010;2024-03-29T20:15:01;100250;;;8.9;88
61571;BME280;47463;49.884;10.010;2024-03-29T20:20:01;100250;;;8.8;88
61571;BME280;47463;49.884;10.010;2024-03-29T20:25:01;100260;;;8.8;88
61571;BME280;47463;49.884;10.010;2024-03-29T20:30:01;100260;;;8.6;88
61571;BME280;47463;49.884;10.010;2024-03-29T20:35:01;100250;;;8.5;88
61571;BME280;47463;49.884;10.010;2024-03-29T20:40:01;100240;;;8.6;88
61571;BME280;47463;49.884;10.010;2024-03-29T20:45:01;100240;;;8.7;88
61571;BME280;47463;49.884;10.010;2024-03-29T20:50:01;100230;;;8.7;88
61571;BME280;47463;49.884;10.010;2024-03-29T20:55:01;100240;;;8.7;88
61571;BME280;47463;49.884;10.010;2024-03-29T21:00:01;100230;;;8.7;88
61571;BME280;47463;49.884;10.010;2024-03-29T21:05:01;100230;;;8.6;88
61571;BME280;47463;49.884;10.010;2024-03-29T21:10:01;100220;;;8.9;88
61571;BME280;47463;49.884;10.010;2024-03-29T21:15:01;100230;;;8.9;88
61571;BME280;47463;49.884;10.010;2024-03-29T21:20:01;100210;;;9;88
61571;BME280;47463;49.884;10.010;2024-03-29T21:25:01;100210;;;9;88
61571;BME280;47463;49.884;10.010;2024-03-29T21:30:01;100210;;;9;87
61571;BME280;47463;49.884;10.010;2024-03-29T21:35:01;100210;;;9.2;86
61571;BME280;47463;49.884;10.010;2024-03-29T21:40:01;100210;;;9.2;86
61571;BME280;47463;49.884;10.010;2024-03-29T21:45:01;100210;;;9.3;86
61571;BME280;47463;49.884;10.010;2024-03-29T21:50:01;100230;;;9.2;86
61571;BME280;47463;49.884;10.010;2024-03-29T21:55:01;100220;;;9.2;85
61571;BME280;47463;49.884;10.010;2024-03-29T22:00:01;100240;;;9.1;85
61571;BME280;47463;49.884;10.010;2024-03-29T22:05:01;100230;;;9.1;85
61571;BME280;47463;49.884;10.010;2024-03-29T22:10:01;100230;;;9.1;85
61571;BME280;47463;49.884;10.010;2024-03-29T22:15:01;100230;;;9;85
61571;BME280;47463;49.884;10.010;2024-03-29T22:20:01;100230;;;9;85
61571;BME280;47463;49.884;10.010;2024-03-29T22:25:01;100220;;;9;85
61571;BME280;47463;49.884;10.010;2024-03-29T22:30:01;100240;;;9;85
61571;BME280;47463;49.884;10.010;2024-03-29T22:35:01;100230;;;8.9;85
61571;BME280;47463;49.884;10.010;2024-03-29T22:40:01;100230;;;8.9;85
61571;BME280;47463;49.884;10.010;2024-03-29T22:45:01;100240;;;8.9;86
61571;BME280;47463;49.884;10.010;2024-03-29T22:50:01;100240;;;8.8;86
61571;BME280;47463;49.884;10.010;2024-03-29T22:55:01;100240;;;8.9;86
61571;BME280;47463;49.884;10.010;2024-03-29T23:00:01;100230;;;8.8;85
61571;BME280;47463;49.884;10.010;2024-03-29T23:05:01;100230;;;8.7;85
61571;BME280;47463;49.884;10.010;2024-03-29T23:10:01;100230;;;8.7;86
61571;BME280;47463;49.884;10.010;2024-03-29T23:15:01;100220;;;8.7;86
61571;BME280;47463;49.884;10.010;2024-03-29T23:20:01;100240;;;8.6;86
61571;BME280;47463;49.884;10.010;2024-03-29T23:25:01;100230;;;8.6;86
61571;BME280;47463;49.884;10.010;2024-03-29T23:30:01;100230;;;8.6;86
61571;BME280;47463;49.884;10.010;2024-03-29T23:35:01;100230;;;8.6;86
61571;BME280;47463;49.884;10.010;2024-03-29T23:40:01;100250;;;8.6;86
61571;BME280;47463;49.884;10.010;2024-03-29T23:45:01;100240;;;8.5;86
61571;BME280;47463;49.884;10.010;2024-03-29T23:50:01;100230;;;8.5;86
61571;BME280;47463;49.884;10.010;2024-03-29T23:55:01;100240;;;8.5;86
